Time;durP1;ratioP1;P1;durP2;ratioP2;P2;SDS_P1;SDS_P2;PMS_P1;PMS_P2;Temp;Humidity;BMP_temperature;BMP_pressure;BME280_temperature;BME280_humidity;BME280_pressure;Samples;Min_cycle;Max_cycle;Signal;HPM_P1;HPM_P2
2021/09/08 00:01:08;;;;;;;15.77;14.50;;;;;;;13.59;84.89;100752.44;10385498;28;20125;-76
2021/09/08 00:06:10;;;;;;;17.38;15.88;;;;;;;13.67;84.44;100757.47;10384636;28;20042;-76
2021/09/08 00:11:11;;;;;;;18.05;16.60;;;;;;;13.45;84.97;100747.59;10383726;28;20062;-76
2021/09/08 00:16:15;;;;;;;17.77;16.48;;;;;;;13.17;85.75;100744.97;10384026;28;20041;-77
2021/09/08 00:21:17;;;;;;;17.30;16.08;;;;;;;12.98;87.14;100752.59;10383032;28;20056;-77
2021/09/08 00:26:18;;;;;;;17.35;15.85;;;;;;;12.98;86.76;100757.84;10381909;28;20046;-77
2021/09/08 00:31:20;;;;;;;16.45;15.25;;;;;;;12.97;87.08;100755.25;10383430;28;20052;-77
2021/09/08 00:36:23;;;;;;;16.88;15.48;;;;;;;13.23;85.93;100757.13;10383323;28;20033;-76
2021/09/08 00:41:29;;;;;;;15.90;14.65;;;;;;;13.33;84.59;100758.59;10385678;28;20419;-76
2021/09/08 00:46:31;;;;;;;17.27;15.60;;;;;;;13.26;84.26;100754.41;10382331;28;20492;-76
2021/09/08 00:51:36;;;;;;;17.02;15.73;;;;;;;12.90;85.96;100759.84;10383790;28;20038;-76
2021/09/08 00:56:41;;;;;;;16.13;14.98;;;;;;;12.69;87.28;100744.66;10383083;28;20124;-76
2021/09/08 01:01:44;;;;;;;16.17;14.98;;;;;;;12.64;86.87;100750.06;10383162;28;20165;-76
2021/09/08 01:06:49;;;;;;;15.85;14.65;;;;;;;12.62;86.91;100744.00;10365097;28;20038;-75
2021/09/08 01:11:53;;;;;;;17.20;15.80;;;;;;;12.85;86.32;100738.03;10379415;28;20061;-76
2021/09/08 01:16:57;;;;;;;16.00;14.80;;;;;;;12.80;85.52;100740.81;10382042;28;20470;-76
2021/09/08 01:21:58;;;;;;;15.20;14.00;;;;;;;12.62;86.18;100733.44;10381238;28;20046;-76
2021/09/08 01:27:00;;;;;;;16.58;15.20;;;;;;;12.71;85.97;100734.94;10363658;28;20045;-78
2021/09/08 01:32:03;;;;;;;15.88;14.40;;;;;;;12.88;84.65;100732.63;10381891;28;20056;-77
2021/09/08 01:37:05;;;;;;;16.73;15.40;;;;;;;12.64;86.05;100728.97;10381326;28;20053;-76
2021/09/08 01:42:06;;;;;;;16.88;15.30;;;;;;;12.54;86.85;100731.00;10381316;28;20496;-76
2021/09/08 01:47:08;;;;;;;16.58;15.38;;;;;;;12.38;87.24;100730.56;10379062;28;20100;-76
2021/09/08 01:52:09;;;;;;;18.80;17.15;;;;;;;12.15;88.49;100725.06;10380733;28;20056;-76
2021/09/08 01:57:11;;;;;;;16.80;15.50;;;;;;;12.09;88.75;100730.53;10382179;28;20042;-76
2021/09/08 02:02:13;;;;;;;16.38;15.18;;;;;;;12.37;87.41;100728.84;10380817;28;20056;-76
2021/09/08 02:07:15;;;;;;;16.85;15.27;;;;;;;12.52;86.19;100721.41;10380595;28;20049;-76
2021/09/08 02:12:16;;;;;;;15.43;14.23;;;;;;;12.56;85.02;100721.25;10381089;28;20046;-76
2021/09/08 02:17:18;;;;;;;16.15;14.95;;;;;;;12.22;86.65;100724.00;10380712;28;20502;-76
2021/09/08 02:22:20;;;;;;;16.13;14.93;;;;;;;12.14;87.70;100726.00;10379182;28;20054;-76
2021/09/08 02:27:24;;;;;;;17.25;15.48;;;;;;;12.21;87.27;100716.13;10382049;28;20451;-76
2021/09/08 02:32:25;;;;;;;16.58;15.38;;;;;;;12.25;86.70;100715.13;10380345;28;20054;-75
2021/09/08 02:37:28;;;;;;;16.77;15.15;;;;;;;11.93;87.81;100710.75;10380785;28;20065;-76
2021/09/08 02:42:29;;;;;;;16.48;15.15;;;;;;;11.96;87.76;100708.03;10380265;28;20046;-76
2021/09/08 02:47:31;;;;;;;16.25;14.95;;;;;;;12.21;86.84;100710.84;10379948;28;20038;-76
2021/09/08 02:52:32;;;;;;;16.30;15.00;;;;;;;12.00;87.33;100712.34;10379047;28;20352;-76
2021/09/08 02:57:34;;;;;;;16.33;15.02;;;;;;;12.24;85.50;100708.16;10381624;28;20046;-75
2021/09/08 03:02:36;;;;;;;16.75;15.55;;;;;;;11.91;87.18;100712.53;10381337;28;20057;-75
2021/09/08 03:07:37;;;;;;;16.48;15.18;;;;;;;12.11;86.44;100705.84;10380856;28;20061;-75
2021/09/08 03:12:39;;;;;;;16.95;15.32;;;;;;;12.14;86.25;100702.28;10379128;28;20071;-75
2021/09/08 03:17:41;;;;;;;16.63;14.90;;;;;;;11.90;87.35;100700.28;10379744;28;20065;-75
2021/09/08 03:22:43;;;;;;;16.80;15.50;;;;;;;11.64;88.19;100699.16;10379527;28;20060;-75
2021/09/08 03:27:44;;;;;;;17.58;16.08;;;;;;;11.61;88.55;100702.75;10380494;28;20036;-76
2021/09/08 03:32:46;;;;;;;15.63;14.52;;;;;;;11.78;88.27;100701.47;10379369;28;20065;-75
2021/09/08 03:37:48;;;;;;;16.58;15.20;;;;;;;11.92;87.05;100699.34;10382928;28;20077;-76
2021/09/08 03:42:50;;;;;;;16.77;15.48;;;;;;;11.99;86.74;100700.91;10385325;28;20045;-75
2021/09/08 03:47:51;;;;;;;16.60;15.00;;;;;;;11.78;87.32;100689.16;10386429;28;20069;-75
2021/09/08 03:52:53;;;;;;;18.38;16.85;;;;;;;11.47;88.29;100691.72;10386056;28;20049;-75
2021/09/08 03:57:54;;;;;;;16.40;15.10;;;;;;;11.47;88.92;100686.44;10385702;28;20069;-76
2021/09/08 04:02:56;;;;;;;16.77;15.57;;;;;;;11.39;89.13;100693.66;10384401;28;20088;-76
2021/09/08 04:07:58;;;;;;;17.20;15.57;;;;;;;11.72;87.70;100678.75;10384788;28;20041;-75
2021/09/08 04:13:00;;;;;;;17.58;16.02;;;;;;;11.82;86.24;100684.63;10385624;28;20439;-75
2021/09/08 04:18:02;;;;;;;16.05;14.65;;;;;;;11.52;87.56;100673.16;10385170;28;20149;-75
2021/09/08 04:23:03;;;;;;;16.90;15.60;;;;;;;11.44;88.43;100669.84;10383925;28;20054;-77
2021/09/08 04:28:05;;;;;;;17.40;15.85;;;;;;;11.35;89.04;100673.56;10383802;28;20042;-76
2021/09/08 04:33:07;;;;;;;19.27;17.77;;;;;;;11.25;89.55;100666.81;10381629;28;20054;-76
2021/09/08 04:38:08;;;;;;;19.35;17.85;;;;;;;11.24;89.62;100670.31;10382679;28;20113;-76
2021/09/08 04:43:10;;;;;;;20.30;18.55;;;;;;;11.18;90.33;100667.84;10382435;28;20483;-75
2021/09/08 04:48:12;;;;;;;21.40;19.02;;;;;;;11.15;91.02;100665.28;10382548;28;20064;-75
2021/09/08 04:53:13;;;;;;;20.30;17.75;;;;;;;11.16;91.25;100667.91;10381059;28;20404;-77
2021/09/08 04:58:15;;;;;;;18.98;17.38;;;;;;;11.26;90.82;100665.91;10380261;28;20060;-74
2021/09/08 05:03:17;;;;;;;19.30;17.75;;;;;;;11.30;91.11;100657.03;10379404;28;20072;-74
2021/09/08 05:08:19;;;;;;;18.50;17.05;;;;;;;11.39;90.71;100667.34;10380206;28;20408;-75
2021/09/08 05:13:21;;;;;;;19.95;17.92;;;;;;;11.44;90.86;100665.44;10380723;28;20088;-76
2021/09/08 05:18:22;;;;;;;19.38;17.85;;;;;;;11.51;90.59;100659.13;10380136;28;20088;-75
2021/09/08 05:23:25;;;;;;;18.20;16.48;;;;;;;11.59;91.04;100656.28;10380495;28;20495;-74
2021/09/08 05:28:26;;;;;;;16.88;15.57;;;;;;;11.70;91.09;100666.56;10380349;28;20050;-76
2021/09/08 05:33:28;;;;;;;18.23;16.50;;;;;;;11.86;90.29;100666.16;10381946;28;20054;-76
2021/09/08 05:38:30;;;;;;;16.70;15.25;;;;;;;12.14;89.64;100668.00;10379981;28;20061;-74
2021/09/08 05:43:32;;;;;;;15.13;14.05;;;;;;;12.60;86.79;100656.97;10379602;28;20054;-74
2021/09/08 05:48:34;;;;;;;17.27;15.75;;;;;;;12.66;86.23;100666.50;10379221;28;20046;-74
2021/09/08 05:53:35;;;;;;;17.33;16.13;;;;;;;12.65;86.88;100667.38;10377188;28;20061;-73
2021/09/08 05:58:37;;;;;;;15.30;14.10;;;;;;;12.95;87.10;100667.34;10378160;28;20114;-73
2021/09/08 06:03:39;;;;;;;13.73;12.43;;;;;;;13.84;82.15;100663.50;10379362;28;20054;-73
2021/09/08 06:08:41;;;;;;;13.90;12.70;;;;;;;14.54;77.41;100662.75;10378786;28;20141;-73
2021/09/08 06:13:43;;;;;;;12.95;11.98;;;;;;;15.28;74.19;100659.84;10377324;28;20108;-74
2021/09/08 06:18:44;;;;;;;11.40;10.55;;;;;;;15.41;72.96;100661.06;10377860;28;20045;-73
2021/09/08 06:23:46;;;;;;;13.00;11.85;;;;;;;15.30;73.10;100650.03;10376933;28;20054;-73
2021/09/08 06:28:49;;;;;;;14.02;12.73;;;;;;;15.26;73.48;100654.59;10377698;28;20121;-75
2021/09/08 06:33:50;;;;;;;13.40;12.02;;;;;;;15.19;74.54;100644.34;10378074;28;20515;-73
2021/09/08 06:38:52;;;;;;;11.85;10.85;;;;;;;15.36;72.68;100647.13;10377060;28;20048;-74
2021/09/08 06:43:54;;;;;;;12.90;11.98;;;;;;;15.42;74.26;100646.88;10376115;28;20045;-74
2021/09/08 06:48:55;;;;;;;14.05;12.85;;;;;;;15.20;76.93;100636.31;10375294;28;20101;-74
2021/09/08 06:53:57;;;;;;;14.23;13.13;;;;;;;15.18;76.63;100638.16;10375769;28;20045;-73
2021/09/08 06:58:59;;;;;;;14.07;12.88;;;;;;;15.59;74.91;100639.09;10376946;28;20100;-75
2021/09/08 07:04:01;;;;;;;13.77;12.85;;;;;;;15.90;74.06;100640.44;10376263;28;20411;-73
2021/09/08 07:09:02;;;;;;;14.50;13.38;;;;;;;15.83;76.11;100642.47;10377920;28;20092;-74
2021/09/08 07:14:04;;;;;;;13.95;12.95;;;;;;;16.08;74.52;100636.09;10385498;28;20469;-74
2021/09/08 07:19:06;;;;;;;19.65;11.40;;;;;;;16.42;73.20;100635.41;10384607;28;20092;-75
2021/09/08 07:24:08;;;;;;;13.93;12.93;;;;;;;16.53;74.73;100624.31;10382461;28;20070;-74
2021/09/08 07:29:17;;;;;;;14.30;13.07;;;;;;;16.82;72.63;100630.91;10382105;28;20128;-74
2021/09/08 07:34:18;;;;;;;14.25;13.23;;;;;;;17.07;71.09;100623.47;10381140;28;20048;-74
2021/09/08 07:39:20;;;;;;;14.52;13.30;;;;;;;17.42;70.56;100625.31;10380126;28;20088;-74
2021/09/08 07:44:22;;;;;;;15.57;14.18;;;;;;;17.69;70.58;100623.03;10382362;28;20126;-74
2021/09/08 07:49:23;;;;;;;14.80;13.68;;;;;;;17.80;70.99;100621.56;10381351;28;20052;-74
2021/09/08 07:54:26;;;;;;;15.52;14.32;;;;;;;18.22;69.03;100614.88;10381171;28;20054;-74
2021/09/08 07:59:28;;;;;;;15.48;13.90;;;;;;;18.44;67.52;100606.59;10380823;28;20042;-74
2021/09/08 08:04:30;;;;;;;15.35;14.23;;;;;;;18.71;67.43;100614.88;10379938;28;20097;-75
2021/09/08 08:09:31;;;;;;;16.23;14.93;;;;;;;18.84;67.54;100610.56;10380591;28;20053;-75
2021/09/08 08:14:33;;;;;;;16.13;14.90;;;;;;;19.12;65.45;100609.88;10381830;28;20092;-74
2021/09/08 08:19:34;;;;;;;14.43;13.23;;;;;;;19.23;65.16;100616.38;10377825;28;20060;-74
2021/09/08 08:24:36;;;;;;;15.63;14.23;;;;;;;19.61;65.76;100604.31;10380035;28;20120;-74
2021/09/08 08:29:38;;;;;;;15.05;13.95;;;;;;;19.65;64.68;100600.50;10379933;28;20050;-75
2021/09/08 08:34:40;;;;;;;15.52;14.25;;;;;;;19.83;65.23;100597.66;10379255;28;20045;-74
2021/09/08 08:39:41;;;;;;;15.02;13.80;;;;;;;20.02;63.37;100592.06;10377258;28;20057;-74
2021/09/08 08:44:43;;;;;;;15.07;13.77;;;;;;;20.16;63.63;100600.06;10378164;28;20050;-74
2021/09/08 08:49:46;;;;;;;14.70;13.50;;;;;;;20.09;64.48;100588.03;10377458;28;20554;-75
2021/09/08 08:54:47;;;;;;;16.60;15.55;;;;;;;20.54;62.89;100578.97;10378245;28;20038;-76
2021/09/08 09:06:33;;;;;;;15.10;13.93;;;;;;;20.86;62.66;100587.56;10378220;28;20072;-74
2021/09/08 09:11:37;;;;;;;14.93;13.73;;;;;;;21.49;59.64;100575.34;10378196;28;20491;-73
2021/09/08 09:16:40;;;;;;;14.13;13.13;;;;;;;21.75;58.01;100573.53;10377425;28;20512;-73
2021/09/08 09:21:43;;;;;;;13.20;12.20;;;;;;;22.19;58.42;100566.91;10376580;28;20041;-74
2021/09/08 09:26:44;;;;;;;12.88;11.68;;;;;;;22.72;56.43;100556.78;10377055;28;20057;-74
2021/09/08 09:31:57;;;;;;;12.82;11.80;;;;;;;23.28;55.51;100551.66;10375750;28;20112;-74
2021/09/08 09:37:00;;;;;;;11.20;10.38;;;;;;;23.64;53.26;100544.41;10377053;28;20121;-74
2021/09/08 09:42:08;;;;;;;9.88;9.10;;;;;;;24.01;52.96;100538.88;10375309;28;20554;-75
2021/09/08 09:47:09;;;;;;;10.93;10.00;;;;;;;24.31;52.70;100522.97;10376242;28;20046;-74
2021/09/08 09:52:11;;;;;;;9.30;8.70;;;;;;;24.83;50.29;100518.66;10375396;28;20099;-73
2021/09/08 09:57:13;;;;;;;9.48;8.77;;;;;;;24.83;49.04;100507.91;10374081;28;20150;-72
2021/09/08 10:02:15;;;;;;;8.07;7.32;;;;;;;24.81;49.93;100504.50;10374689;28;20100;-73
2021/09/08 10:07:19;;;;;;;8.25;7.50;;;;;;;25.24;49.36;100506.28;10374935;28;20365;-73
2021/09/08 10:12:27;;;;;;;7.95;6.07;;;;;;;25.73;42.46;100493.09;10375967;28;20049;-73
2021/09/08 10:17:44;;;;;;;6.43;5.60;;;;;;;26.08;40.51;100487.31;10383090;28;20085;-74
2021/09/08 10:22:47;;;;;;;6.35;5.20;;;;;;;26.09;39.90;100480.91;10374529;28;20120;-73
2021/09/08 10:27:53;;;;;;;5.53;5.03;;;;;;;26.22;40.83;100478.84;10375412;28;20096;-72
2021/09/08 10:33:12;;;;;;;5.15;4.72;;;;;;;26.36;38.92;100464.09;10375067;28;20547;-72
2021/09/08 10:38:19;;;;;;;4.78;4.38;;;;;;;26.31;36.48;100464.53;10374690;28;20056;-70
2021/09/08 10:43:29;;;;;;;5.32;4.63;;;;;;;26.85;39.22;100456.91;10377452;28;20046;-71
2021/09/08 10:48:44;;;;;;;5.38;4.97;;;;;;;26.92;37.34;100449.94;10384196;28;20065;-72
2021/09/08 10:54:05;;;;;;;4.80;4.50;;;;;;;27.22;36.55;100442.66;10401877;28;20045;-73
2021/09/08 10:59:06;;;;;;;4.72;4.32;;;;;;;27.59;35.27;100438.16;10382434;28;20046;-73
2021/09/08 11:04:13;;;;;;;5.00;4.60;;;;;;;27.59;37.96;100438.16;10384593;28;20053;-73
2021/09/08 11:09:17;;;;;;;5.28;4.85;;;;;;;27.58;35.91;100430.16;10384011;28;20046;-72
2021/09/08 11:14:42;;;;;;;4.65;4.25;;;;;;;27.98;37.47;100421.78;10382309;28;20062;-73
2021/09/08 11:19:54;;;;;;;4.93;4.43;;;;;;;27.82;35.84;100417.03;10382173;28;20128;-72
2021/09/08 11:25:07;;;;;;;4.95;4.63;;;;;;;27.70;34.41;100422.75;10381290;28;20042;-73
2021/09/08 11:30:11;;;;;;;5.78;4.65;;;;;;;27.59;36.24;100423.78;10380252;28;20049;-73
2021/09/08 11:35:13;;;;;;;4.88;4.43;;;;;;;27.37;35.80;100417.78;10381189;28;20436;-73
2021/09/08 11:40:14;;;;;;;4.93;4.63;;;;;;;27.52;35.22;100407.31;10379215;28;20057;-72
2021/09/08 11:45:29;;;;;;;6.45;5.03;;;;;;;27.56;35.92;100406.03;10378745;28;20447;-73
2021/09/08 11:50:32;;;;;;;5.25;4.80;;;;;;;27.45;36.67;100408.06;10380942;28;20068;-73
2021/09/08 11:55:37;;;;;;;5.10;4.60;;;;;;;26.83;35.80;100415.75;10393961;23;20029;-68
2021/09/08 12:00:52;;;;;;;;;;;;;;;26.62;35.80;100411.38;10380344;28;20053;-69
2021/09/08 12:06:09;;;;;;;5.13;4.70;;;;;;;26.57;36.16;100396.63;10379087;28;19944;-69
2021/09/08 12:11:12;;;;;;;5.22;4.85;;;;;;;26.73;34.28;100401.41;10380798;28;20472;-70
2021/09/08 12:16:37;;;;;;;4.90;4.50;;;;;;;26.65;37.11;100386.81;10379030;28;20034;-71
2021/09/08 12:21:39;;;;;;;5.85;5.28;;;;;;;26.64;35.27;100384.25;10378642;28;20069;-71
2021/09/08 12:26:41;;;;;;;5.47;4.97;;;;;;;26.46;35.88;100378.72;10377904;28;20046;-72
2021/09/08 12:32:02;;;;;;;5.68;5.28;;;;;;;26.45;38.71;100381.56;10376291;28;20053;-71
2021/09/08 12:37:08;;;;;;;5.82;4.90;;;;;;;26.17;36.77;100370.63;10377578;28;20057;-70
2021/09/08 12:42:18;;;;;;;5.40;4.90;;;;;;;25.90;37.75;100366.75;10377677;28;20057;-70
2021/09/08 12:47:21;;;;;;;8.10;5.18;;;;;;;25.84;37.26;100363.75;10376103;28;20165;-70
2021/09/08 12:52:23;;;;;;;5.40;5.00;;;;;;;25.29;39.03;100360.59;10377074;28;20104;-70
2021/09/08 12:57:32;;;;;;;4.88;4.55;;;;;;;25.37;36.59;100353.56;10378210;28;20045;-71
2021/09/08 13:02:34;;;;;;;4.50;4.10;;;;;;;25.15;34.67;100346.53;10376738;28;20093;-71
2021/09/08 13:07:36;;;;;;;5.32;4.55;;;;;;;25.02;37.04;100345.84;10376040;28;20068;-71
2021/09/08 13:12:37;;;;;;;4.95;4.53;;;;;;;24.84;37.77;100328.66;10375250;28;20053;-71
2021/09/08 13:17:39;;;;;;;4.78;4.38;;;;;;;24.86;38.66;100329.34;10375159;28;20041;-71
2021/09/08 13:22:40;;;;;;;5.05;4.38;;;;;;;24.87;37.10;100323.81;10375751;28;20058;-71
2021/09/08 13:27:42;;;;;;;5.32;4.45;;;;;;;25.03;38.30;100311.75;10376238;28;20431;-71
2021/09/08 13:32:43;;;;;;;5.20;4.80;;;;;;;24.83;37.77;100305.41;10375735;28;20049;-70
2021/09/08 13:37:45;;;;;;;5.07;4.65;;;;;;;24.88;37.54;100313.91;10376347;28;20088;-71
2021/09/08 13:42:47;;;;;;;4.95;4.38;;;;;;;24.97;38.35;100305.06;10374631;28;20491;-71
2021/09/08 13:47:49;;;;;;;4.50;4.10;;;;;;;24.87;38.66;100286.19;10374129;28;20104;-71
2021/09/08 13:52:50;;;;;;;4.93;4.53;;;;;;;24.79;37.57;100293.22;10374029;28;20045;-71
2021/09/08 13:57:52;;;;;;;5.00;4.60;;;;;;;24.81;37.45;100291.25;10373914;28;20476;-71
2021/09/08 14:02:53;;;;;;;4.65;4.20;;;;;;;24.66;37.57;100280.88;10374068;28;20046;-70
2021/09/08 14:07:59;;;;;;;4.88;4.43;;;;;;;24.74;38.14;100277.47;10373933;28;20499;-70
2021/09/08 14:13:00;;;;;;;4.50;4.20;;;;;;;24.74;38.01;100266.72;10373323;28;20058;-70
2021/09/08 14:18:03;;;;;;;4.70;4.32;;;;;;;24.62;38.43;100271.34;10373347;28;20045;-70
2021/09/08 14:23:05;;;;;;;6.28;5.45;;;;;;;24.72;37.80;100262.50;10373454;28;20046;-70
2021/09/08 14:28:07;;;;;;;5.18;4.60;;;;;;;24.76;37.69;100255.88;10373348;28;20502;-70
2021/09/08 14:33:09;;;;;;;6.60;4.68;;;;;;;24.75;37.45;100254.16;10372014;28;20423;-70
2021/09/08 14:38:11;;;;;;;8.38;4.95;;;;;;;24.74;37.77;100247.91;10373690;28;20050;-70
2021/09/08 14:43:13;;;;;;;6.32;4.88;;;;;;;24.83;37.55;100246.25;10373019;28;20204;-69
2021/09/08 14:48:18;;;;;;;5.28;4.78;;;;;;;24.87;38.45;100239.63;10373730;28;20125;-70
2021/09/08 14:53:20;;;;;;;7.80;4.68;;;;;;;24.81;37.29;100237.50;10372924;28;20554;-70
2021/09/08 14:58:21;;;;;;;7.07;4.45;;;;;;;24.72;38.04;100232.91;10372966;28;20221;-69
2021/09/08 15:03:23;;;;;;;4.30;4.00;;;;;;;24.82;37.57;100231.13;10373214;28;20111;-69
2021/09/08 15:08:25;;;;;;;5.00;4.60;;;;;;;24.64;38.62;100236.28;10372455;28;20037;-69
2021/09/08 15:13:27;;;;;;;4.60;4.15;;;;;;;24.55;38.59;100234.38;10372889;28;20054;-70
2021/09/08 15:18:28;;;;;;;4.88;4.00;;;;;;;24.54;38.83;100224.63;10373554;28;20038;-69
2021/09/08 15:23:30;;;;;;;4.45;4.07;;;;;;;24.45;39.14;100212.84;10372234;28;20065;-70
2021/09/08 15:28:33;;;;;;;5.00;4.60;;;;;;;24.28;39.71;100213.41;10372554;28;20046;-70
2021/09/08 15:33:35;;;;;;;6.13;4.43;;;;;;;24.20;39.95;100208.69;10378573;28;20046;-70
2021/09/08 15:38:36;;;;;;;5.03;4.63;;;;;;;24.39;39.79;100199.94;10380949;28;20491;-70
2021/09/08 15:43:38;;;;;;;4.88;4.32;;;;;;;24.21;40.40;100196.97;10379227;28;20104;-70
2021/09/08 15:48:40;;;;;;;4.45;4.15;;;;;;;24.35;40.17;100191.28;10379671;28;20407;-71
2021/09/08 15:53:41;;;;;;;4.72;4.32;;;;;;;24.19;40.38;100184.66;10378555;28;20108;-70
2021/09/08 15:58:43;;;;;;;4.55;4.15;;;;;;;24.04;40.85;100190.38;10378157;28;20108;-69
2021/09/08 16:03:44;;;;;;;6.20;4.75;;;;;;;24.04;40.50;100187.69;10379183;28;20046;-69
2021/09/08 16:08:49;;;;;;;4.38;4.07;;;;;;;23.85;40.87;100183.03;10376578;28;20073;-70
2021/09/08 16:13:50;;;;;;;5.45;4.70;;;;;;;23.65;41.35;100173.97;10378014;28;20057;-70
2021/09/08 16:18:54;;;;;;;4.50;4.10;;;;;;;23.50;41.22;100163.63;10377763;28;20049;-70
2021/09/08 16:23:55;;;;;;;4.18;3.88;;;;;;;23.59;40.30;100163.72;10378368;28;20049;-69
2021/09/08 16:28:58;;;;;;;4.75;4.32;;;;;;;23.58;40.33;100156.66;10377431;28;20042;-70
2021/09/08 16:33:59;;;;;;;4.53;4.22;;;;;;;23.58;39.65;100151.28;10378343;28;20059;-70
2021/09/08 16:39:01;;;;;;;6.05;4.22;;;;;;;23.43;40.25;100144.53;10378057;28;20046;-74
2021/09/08 16:44:03;;;;;;;5.28;4.03;;;;;;;23.25;40.81;100154.13;10379798;28;20491;-70
2021/09/08 16:49:08;;;;;;;4.35;3.95;;;;;;;22.78;41.40;100138.22;10376754;28;20103;-70
2021/09/08 16:54:11;;;;;;;4.45;4.05;;;;;;;22.62;42.05;100146.66;10376654;28;20081;-71
2021/09/08 16:59:13;;;;;;;4.65;4.35;;;;;;;22.41;43.32;100137.66;10377809;28;20052;-69
2021/09/08 17:04:14;;;;;;;5.28;4.78;;;;;;;22.49;43.47;100137.03;10377655;28;20073;-69
2021/09/08 17:09:16;;;;;;;5.22;4.75;;;;;;;22.42;44.53;100124.13;10379599;28;20042;-69
2021/09/08 17:14:18;;;;;;;4.85;4.40;;;;;;;22.28;45.43;100128.88;10375454;28;20054;-69
2021/09/08 17:19:22;;;;;;;5.72;5.10;;;;;;;22.01;47.33;100123.84;10375424;28;20049;-70
2021/09/08 17:24:23;;;;;;;5.88;5.35;;;;;;;21.71;48.96;100130.59;10375156;28;20049;-69
2021/09/08 17:29:25;;;;;;;6.32;5.82;;;;;;;21.37;50.36;100129.59;10375233;28;20041;-70
2021/09/08 17:34:28;;;;;;;9.00;7.53;;;;;;;21.07;52.33;100130.03;10375689;28;20049;-70
2021/09/08 17:39:29;;;;;;;6.28;5.68;;;;;;;20.78;53.35;100138.38;10375524;28;20046;-70
2021/09/08 17:44:34;;;;;;;6.55;6.05;;;;;;;20.49;54.69;100135.13;10375390;28;20046;-70
2021/09/08 17:49:37;;;;;;;7.85;5.65;;;;;;;20.55;55.12;100126.69;10374335;28;20034;-69
2021/09/08 17:54:38;;;;;;;9.45;6.20;;;;;;;20.33;56.08;100131.81;10374314;28;20488;-70
2021/09/08 17:59:43;;;;;;;6.97;6.28;;;;;;;20.15;56.26;100132.16;10434343;22;20133;-78
2021/09/08 18:04:46;;;;;;;8.90;6.55;;;;;;;19.94;57.46;100135.44;10424153;28;20059;-77
2021/09/08 18:09:47;;;;;;;14.88;6.93;;;;;;;19.67;56.36;100132.84;10421251;28;20065;-80
2021/09/08 18:14:51;;;;;;;7.18;6.57;;;;;;;19.15;58.50;100138.00;10424169;28;20053;-78
2021/09/08 18:19:55;;;;;;;7.60;6.90;;;;;;;19.02;59.68;100136.25;10433394;28;20445;-77
2021/09/08 18:24:56;;;;;;;10.07;6.75;;;;;;;18.86;59.46;100139.06;10423615;28;20048;-77
2021/09/08 18:29:59;;;;;;;6.75;6.18;;;;;;;18.59;59.92;100134.50;10425575;28;20502;-77
2021/09/08 18:35:03;;;;;;;6.93;6.22;;;;;;;18.31;60.61;100132.72;10430741;28;20046;-77
2021/09/08 18:40:06;;;;;;;6.72;6.13;;;;;;;18.25;61.08;100141.09;10422005;28;20041;-77
2021/09/08 18:45:09;;;;;;;7.47;6.78;;;;;;;18.22;61.46;100135.09;10421569;28;20376;-78
2021/09/08 18:50:13;;;;;;;8.23;5.57;;;;;;;18.15;61.40;100138.16;10420067;28;20064;-77
2021/09/08 18:55:16;;;;;;;6.65;6.05;;;;;;;18.09;62.48;100132.31;10421834;28;20048;-79
2021/09/08 19:00:20;;;;;;;6.10;5.60;;;;;;;18.03;62.56;100138.03;10425636;28;20033;-79
2021/09/08 19:05:22;;;;;;;7.05;6.20;;;;;;;17.90;62.30;100137.91;10426835;28;20045;-78
2021/09/08 19:10:25;;;;;;;7.10;6.40;;;;;;;17.93;63.02;100134.19;10433485;28;20072;-79
2021/09/08 19:15:27;;;;;;;6.93;6.25;;;;;;;17.77;62.79;100129.81;10431337;28;20049;-78
2021/09/08 19:20:31;;;;;;;7.00;6.47;;;;;;;17.60;62.98;100124.63;10430204;28;20048;-78
2021/09/08 19:25:32;;;;;;;6.32;5.65;;;;;;;17.40;63.04;100129.31;10435212;28;20057;-78
2021/09/08 19:30:38;;;;;;;6.03;5.43;;;;;;;17.30;62.96;100121.94;10456355;28;20047;-78
2021/09/08 19:35:39;;;;;;;6.57;5.95;;;;;;;17.23;62.33;100125.94;10439779;28;20045;-79
2021/09/08 19:40:41;;;;;;;6.60;6.10;;;;;;;17.24;61.81;100117.88;10430919;28;20057;-77
2021/09/08 19:45:43;;;;;;;7.90;5.60;;;;;;;17.28;61.98;100115.88;10440812;28;20049;-79
2021/09/08 19:50:45;;;;;;;12.00;6.15;;;;;;;17.29;62.06;100123.75;10469412;28;20044;-78
2021/09/08 19:55:47;;;;;;;6.43;5.45;;;;;;;17.32;62.29;100112.97;10469357;28;20136;-79
2021/09/08 20:00:49;;;;;;;6.07;5.47;;;;;;;17.24;62.48;100107.25;10472588;28;20041;-77
2021/09/08 20:05:50;;;;;;;5.70;5.20;;;;;;;17.14;63.01;100103.41;10468019;28;20045;-79
2021/09/08 20:10:52;;;;;;;6.07;5.57;;;;;;;16.99;63.55;100102.47;10458942;28;20075;-78
2021/09/08 20:15:54;;;;;;;6.38;5.80;;;;;;;16.92;64.00;100103.78;10427575;28;20041;-77
2021/09/08 20:20:56;;;;;;;6.45;5.93;;;;;;;16.76;64.24;100103.78;10426462;28;20049;-78
2021/09/08 20:25:58;;;;;;;7.80;5.63;;;;;;;16.68;64.52;100097.16;10433382;28;20081;-79
2021/09/08 20:30:59;;;;;;;6.90;6.30;;;;;;;16.52;64.71;100095.38;10437381;28;20048;-78
2021/09/08 20:36:01;;;;;;;6.32;5.72;;;;;;;16.46;65.19;100093.03;10429779;28;20045;-77
2021/09/08 20:41:03;;;;;;;7.35;6.65;;;;;;;16.58;64.24;100088.84;10428800;28;20120;-78
2021/09/08 20:46:05;;;;;;;7.63;6.50;;;;;;;16.62;63.20;100080.63;10427095;28;20064;-79
2021/09/08 20:51:07;;;;;;;7.43;6.68;;;;;;;16.47;64.04;100085.94;10412258;28;20079;-77
2021/09/08 20:56:08;;;;;;;7.32;6.22;;;;;;;16.01;65.69;100086.63;10426836;28;20045;-77
2021/09/08 21:01:10;;;;;;;7.75;7.05;;;;;;;15.91;66.50;100074.81;10426645;28;20521;-78
2021/09/08 21:06:16;;;;;;;7.47;6.82;;;;;;;15.90;66.87;100083.72;10423136;28;20490;-78
2021/09/08 21:11:17;;;;;;;6.95;6.45;;;;;;;16.05;65.88;100079.38;10424216;28;20092;-76
2021/09/08 21:16:19;;;;;;;7.43;6.57;;;;;;;15.58;67.59;100077.41;10423965;28;20038;-77
2021/09/08 21:21:21;;;;;;;7.40;6.80;;;;;;;15.39;68.61;100072.19;10423128;28;20045;-77
2021/09/08 21:26:22;;;;;;;6.90;6.32;;;;;;;15.29;68.81;100071.81;10422717;28;20065;-77
2021/09/08 21:31:24;;;;;;;8.18;7.55;;;;;;;15.24;69.08;100076.47;10423887;28;20056;-78
2021/09/08 21:36:26;;;;;;;7.32;6.65;;;;;;;15.18;69.18;100079.41;10422698;28;20037;-78
2021/09/08 21:41:27;;;;;;;11.60;7.07;;;;;;;15.26;68.79;100081.69;10423701;28;20122;-77
2021/09/08 21:46:29;;;;;;;7.68;6.80;;;;;;;15.04;69.55;100072.16;10424491;28;20041;-77
2021/09/08 21:51:31;;;;;;;7.50;6.90;;;;;;;15.10;69.09;100077.19;10424353;28;20325;-78
2021/09/08 21:56:32;;;;;;;6.75;6.25;;;;;;;15.11;68.16;100075.38;10426097;28;20045;-78
2021/09/08 22:01:34;;;;;;;7.28;6.63;;;;;;;14.92;68.83;100071.91;10426727;28;20107;-78
2021/09/08 22:06:36;;;;;;;6.78;6.35;;;;;;;14.86;70.28;100066.00;10426483;28;20482;-78
2021/09/08 22:11:37;;;;;;;7.82;7.10;;;;;;;14.63;70.71;100064.47;10421555;28;20574;-78
2021/09/08 22:16:39;;;;;;;8.32;7.50;;;;;;;14.75;70.01;100065.66;10422022;28;20095;-78
2021/09/08 22:21:41;;;;;;;7.90;7.00;;;;;;;14.64;70.88;100065.31;10419689;28;20206;-78
2021/09/08 22:26:42;;;;;;;7.70;6.93;;;;;;;14.57;70.76;100061.28;10417523;28;20111;-77
2021/09/08 22:31:44;;;;;;;7.72;7.07;;;;;;;14.50;71.14;100051.91;10418195;28;20053;-77
2021/09/08 22:36:45;;;;;;;8.82;8.10;;;;;;;14.39;71.81;100062.97;10415589;28;20049;-77
2021/09/08 22:41:47;;;;;;;8.65;7.85;;;;;;;14.24;72.50;100056.59;10424183;28;20049;-77
2021/09/08 22:46:49;;;;;;;7.97;7.40;;;;;;;14.33;72.73;100057.94;10427934;28;20103;-77
2021/09/08 22:51:50;;;;;;;8.00;7.35;;;;;;;14.31;73.01;100054.53;10427421;28;20057;-78
2021/09/08 22:56:52;;;;;;;8.15;7.35;;;;;;;14.34;71.94;100057.91;10428103;28;20042;-78
2021/09/08 23:01:54;;;;;;;7.95;7.15;;;;;;;14.27;71.86;100051.16;10425759;28;20038;-77
2021/09/08 23:06:56;;;;;;;9.98;7.07;;;;;;;14.24;71.41;100056.59;10428317;28;20439;-77